sensor_id;sensor_type;location;lat;lon;timestamp;pressure;altitude;pressure_sealevel;temperature;humidity
69955;BME280;57279;55.912;37.490;2023-02-28T00:01:14;99756.09;;;-6.97;72.13
69955;BME280;57279;55.912;37.490;2023-02-28T00:03:41;99746.44;;;-6.87;71.78
69955;BME280;57279;55.912;37.490;2023-02-28T00:06:09;99738.28;;;-6.94;71.55
69955;BME280;57279;55.912;37.490;2023-02-28T00:08:35;99744.66;;;-6.86;71.61
69955;BME280;57279;55.912;37.490;2023-02-28T00:11:06;99737.16;;;-7.01;71.70
69955;BME280;57279;55.912;37.490;2023-02-28T00:13:34;99739.41;;;-7.06;71.77
69955;BME280;57279;55.912;37.490;2023-02-28T00:16:06;99734.53;;;-7.11;71.88
69955;BME280;57279;55.912;37.490;2023-02-28T00:18:32;99733.41;;;-7.28;71.99
69955;BME280;57279;55.912;37.490;2023-02-28T00:20:58;99731.78;;;-7.29;72.04
69955;BME280;57279;55.912;37.490;2023-02-28T00:23:25;99729.28;;;-7.20;71.92
69955;BME280;57279;55.912;37.490;2023-02-28T00:25:50;99727.75;;;-7.33;72.00
69955;BME280;57279;55.912;37.490;2023-02-28T00:28:17;99729.13;;;-7.38;72.57
69955;BME280;57279;55.912;37.490;2023-02-28T00:30:42;99727.19;;;-7.36;72.82
69955;BME280;57279;55.912;37.490;2023-02-28T00:33:08;99727.34;;;-7.28;72.78
69955;BME280;57279;55.912;37.490;2023-02-28T00:35:34;99723.91;;;-7.29;72.11
69955;BME280;57279;55.912;37.490;2023-02-28T00:37:59;99720.03;;;-7.24;72.10
69955;BME280;57279;55.912;37.490;2023-02-28T00:40:26;99721.16;;;-7.17;71.98
69955;BME280;57279;55.912;37.490;2023-02-28T00:42:52;99707.72;;;-7.14;71.68
69955;BME280;57279;55.912;37.490;2023-02-28T00:45:17;99700.53;;;-7.22;71.88
69955;BME280;57279;55.912;37.490;2023-02-28T00:47:44;99692.81;;;-7.33;72.01
69955;BME280;57279;55.912;37.490;2023-02-28T00:50:11;99687.44;;;-7.32;72.13
69955;BME280;57279;55.912;37.490;2023-02-28T00:52:37;99691.16;;;-7.44;72.34
69955;BME280;57279;55.912;37.490;2023-02-28T00:55:04;99687.97;;;-7.38;72.19
69955;BME280;57279;55.912;37.490;2023-02-28T00:57:29;99680.53;;;-7.33;72.16
69955;BME280;57279;55.912;37.490;2023-02-28T00:59:55;99681.31;;;-7.61;72.50
69955;BME280;57279;55.912;37.490;2023-02-28T01:02:21;99671.53;;;-7.59;72.49
69955;BME280;57279;55.912;37.490;2023-02-28T01:04:47;99660.47;;;-7.63;72.73
69955;BME280;57279;55.912;37.490;2023-02-28T01:07:13;99659.81;;;-7.45;72.82
69955;BME280;57279;55.912;37.490;2023-02-28T01:09:40;99646.69;;;-7.65;72.79
69955;BME280;57279;55.912;37.490;2023-02-28T01:12:07;99653.97;;;-7.69;73.16
69955;BME280;57279;55.912;37.490;2023-02-28T01:14:33;99641.41;;;-7.75;73.21
69955;BME280;57279;55.912;37.490;2023-02-28T01:16:58;99643.31;;;-7.77;73.58
69955;BME280;57279;55.912;37.490;2023-02-28T01:19:24;99641.34;;;-7.94;73.94
69955;BME280;57279;55.912;37.490;2023-02-28T01:21:50;99622.50;;;-7.88;74.09
69955;BME280;57279;55.912;37.490;2023-02-28T01:24:15;99618.31;;;-7.91;74.09
69955;BME280;57279;55.912;37.490;2023-02-28T01:26:41;99609.22;;;-7.96;74.27
69955;BME280;57279;55.912;37.490;2023-02-28T01:29:07;99606.72;;;-7.98;74.04
69955;BME280;57279;55.912;37.490;2023-02-28T01:31:32;99601.47;;;-7.98;74.28
69955;BME280;57279;55.912;37.490;2023-02-28T01:33:58;99591.16;;;-7.90;74.11
69955;BME280;57279;55.912;37.490;2023-02-28T01:36:27;99605.22;;;-7.91;73.80
69955;BME280;57279;55.912;37.490;2023-02-28T01:38:54;99592.94;;;-7.90;74.25
69955;BME280;57279;55.912;37.490;2023-02-28T01:41:26;99592.94;;;-8.00;74.16
69955;BME280;57279;55.912;37.490;2023-02-28T01:44:01;99583.19;;;-7.88;74.08
69955;BME280;57279;55.912;37.490;2023-02-28T01:46:30;99585.25;;;-7.92;74.10
69955;BME280;57279;55.912;37.490;2023-02-28T01:51:30;99586.06;;;-7.81;74.05
69955;BME280;57279;55.912;37.490;2023-02-28T01:54:02;99574.06;;;-7.84;73.63
69955;BME280;57279;55.912;37.490;2023-02-28T01:56:30;99572.41;;;-7.85;73.88
69955;BME280;57279;55.912;37.490;2023-02-28T01:58:59;99566.47;;;-7.87;73.99
69955;BME280;57279;55.912;37.490;2023-02-28T02:01:27;99573.66;;;-7.79;73.92
69955;BME280;57279;55.912;37.490;2023-02-28T02:03:55;99565.09;;;-7.81;73.69
69955;BME280;57279;55.912;37.490;2023-02-28T02:06:37;99565.53;;;-7.67;73.57
69955;BME280;57279;55.912;37.490;2023-02-28T02:09:06;99564.28;;;-7.62;73.15
69955;BME280;57279;55.912;37.490;2023-02-28T02:11:32;99553.91;;;-7.74;73.20
69955;BME280;57279;55.912;37.490;2023-02-28T02:16:33;99536.94;;;-7.50;72.97
69955;BME280;57279;55.912;37.490;2023-02-28T02:27:03;99526.47;;;-7.70;73.21
69955;BME280;57279;55.912;37.490;2023-02-28T02:37:39;99517.63;;;-7.49;73.09
69955;BME280;57279;55.912;37.490;2023-02-28T02:40:16;99506.31;;;-7.59;72.90
69955;BME280;57279;55.912;37.490;2023-02-28T02:45:33;99493.06;;;-7.48;73.05
69955;BME280;57279;55.912;37.490;2023-02-28T02:48:06;99494.44;;;-7.44;72.55
69955;BME280;57279;55.912;37.490;2023-02-28T02:50:38;99482.09;;;-7.34;72.43
69955;BME280;57279;55.912;37.490;2023-02-28T02:53:07;99475.34;;;-7.36;72.42
69955;BME280;57279;55.912;37.490;2023-02-28T02:55:38;99466.94;;;-7.40;72.32
69955;BME280;57279;55.912;37.490;2023-02-28T02:58:08;99466.94;;;-7.40;72.38
69955;BME280;57279;55.912;37.490;2023-02-28T03:00:41;99459.06;;;-7.40;72.36
69955;BME280;57279;55.912;37.490;2023-02-28T03:03:10;99461.56;;;-7.38;72.18
69955;BME280;57279;55.912;37.490;2023-02-28T03:05:46;99456.84;;;-7.35;72.22
69955;BME280;57279;55.912;37.490;2023-02-28T03:08:12;99455.09;;;-7.44;72.07
69955;BME280;57279;55.912;37.490;2023-02-28T03:10:46;99441.13;;;-7.35;71.81
69955;BME280;57279;55.912;37.490;2023-02-28T03:19:03;99419.72;;;-7.40;71.50
69955;BME280;57279;55.912;37.490;2023-02-28T03:27:16;99410.78;;;-7.57;72.09
69955;BME280;57279;55.912;37.490;2023-02-28T03:29:51;99413.34;;;-7.75;72.35
69955;BME280;57279;55.912;37.490;2023-02-28T03:32:56;99414.50;;;-7.50;72.80
69955;BME280;57279;55.912;37.490;2023-02-28T03:35:25;99410.78;;;-7.57;72.46
69955;BME280;57279;55.912;37.490;2023-02-28T03:38:02;99399.31;;;-7.56;72.26
69955;BME280;57279;55.912;37.490;2023-02-28T03:40:32;99406.00;;;-7.61;72.06
69955;BME280;57279;55.912;37.490;2023-02-28T03:43:02;99397.16;;;-7.70;72.13
69955;BME280;57279;55.912;37.490;2023-02-28T03:45:32;99393.03;;;-7.73;72.42
69955;BME280;57279;55.912;37.490;2023-02-28T03:48:11;99391.25;;;-7.72;72.44
69955;BME280;57279;55.912;37.490;2023-02-28T03:50:44;99381.72;;;-7.73;72.64
69955;BME280;57279;55.912;37.490;2023-02-28T03:53:18;99380.34;;;-7.77;72.34
69955;BME280;57279;55.912;37.490;2023-02-28T03:55:48;99371.66;;;-7.78;72.67
69955;BME280;57279;55.912;37.490;2023-02-28T03:58:29;99370.16;;;-7.80;72.57
69955;BME280;57279;55.912;37.490;2023-02-28T04:01:06;99368.91;;;-7.76;72.36
69955;BME280;57279;55.912;37.490;2023-02-28T04:03:36;99378.44;;;-7.85;72.25
69955;BME280;57279;55.912;37.490;2023-02-28T04:06:02;99372.91;;;-7.82;72.10
69955;BME280;57279;55.912;37.490;2023-02-28T04:08:28;99367.78;;;-7.74;72.27
69955;BME280;57279;55.912;37.490;2023-02-28T04:11:04;99357.47;;;-7.85;72.22
69955;BME280;57279;55.912;37.490;2023-02-28T04:13:32;99352.78;;;-7.91;72.46
69955;BME280;57279;55.912;37.490;2023-02-28T04:15:57;99350.41;;;-7.84;72.52
69955;BME280;57279;55.912;37.490;2023-02-28T04:18:23;99333.19;;;-7.87;72.63
69955;BME280;57279;55.912;37.490;2023-02-28T04:20:49;99344.25;;;-7.93;72.42
69955;BME280;57279;55.912;37.490;2023-02-28T04:23:14;99335.84;;;-7.97;72.47
69955;BME280;57279;55.912;37.490;2023-02-28T04:25:40;99332.94;;;-7.94;72.18
69955;BME280;57279;55.912;37.490;2023-02-28T04:28:06;99327.16;;;-7.97;72.31
69955;BME280;57279;55.912;37.490;2023-02-28T04:30:32;99323.56;;;-7.96;71.92
69955;BME280;57279;55.912;37.490;2023-02-28T04:32:58;99307.16;;;-7.98;72.36
69955;BME280;57279;55.912;37.490;2023-02-28T04:35:25;99313.72;;;-7.84;73.34
69955;BME280;57279;55.912;37.490;2023-02-28T04:37:50;99308.31;;;-7.73;72.74
69955;BME280;57279;55.912;37.490;2023-02-28T04:40:16;99295.16;;;-7.63;71.52
69955;BME280;57279;55.912;37.490;2023-02-28T04:42:41;99295.22;;;-7.83;71.09
69955;BME280;57279;55.912;37.490;2023-02-28T04:45:08;99303.22;;;-7.84;71.22
69955;BME280;57279;55.912;37.490;2023-02-28T04:47:36;99282.00;;;-7.81;71.24
69955;BME280;57279;55.912;37.490;2023-02-28T04:50:02;99277.75;;;-7.92;71.17
69955;BME280;57279;55.912;37.490;2023-02-28T04:52:29;99279.38;;;-7.81;70.70
69955;BME280;57279;55.912;37.490;2023-02-28T04:54:55;99255.69;;;-7.90;70.95
69955;BME280;57279;55.912;37.490;2023-02-28T04:57:20;99261.13;;;-7.73;70.46
69955;BME280;57279;55.912;37.490;2023-02-28T04:59:46;99253.28;;;-7.83;70.59
69955;BME280;57279;55.912;37.490;2023-02-28T05:02:12;99251.66;;;-7.84;70.72
69955;BME280;57279;55.912;37.490;2023-02-28T05:04:37;99258.53;;;-7.83;70.69
69955;BME280;57279;55.912;37.490;2023-02-28T05:07:03;99253.25;;;-7.73;70.42
69955;BME280;57279;55.912;37.490;2023-02-28T05:09:29;99254.81;;;-7.80;70.05
69955;BME280;57279;55.912;37.490;2023-02-28T05:11:55;99248.78;;;-7.91;70.16
69955;BME280;57279;55.912;37.490;2023-02-28T05:14:21;99240.72;;;-7.79;70.45
69955;BME280;57279;55.912;37.490;2023-02-28T05:16:47;99233.69;;;-7.79;69.91
69955;BME280;57279;55.912;37.490;2023-02-28T05:19:12;99233.06;;;-7.91;70.01
69955;BME280;57279;55.912;37.490;2023-02-28T05:21:40;99217.72;;;-7.86;70.07
69955;BME280;57279;55.912;37.490;2023-02-28T05:24:09;99208.94;;;-7.94;69.81
69955;BME280;57279;55.912;37.490;2023-02-28T05:26:40;99214.03;;;-7.93;69.91
69955;BME280;57279;55.912;37.490;2023-02-28T05:29:07;99202.94;;;-7.87;69.47
69955;BME280;57279;55.912;37.490;2023-02-28T05:31:34;99195.03;;;-7.77;69.70
69955;BME280;57279;55.912;37.490;2023-02-28T05:34:00;99189.78;;;-7.77;69.25
69955;BME280;57279;55.912;37.490;2023-02-28T05:36:26;99194.41;;;-7.61;68.90
69955;BME280;57279;55.912;37.490;2023-02-28T05:38:52;99181.59;;;-7.64;68.73
69955;BME280;57279;55.912;37.490;2023-02-28T05:41:18;99190.53;;;-7.57;69.03
69955;BME280;57279;55.912;37.490;2023-02-28T05:43:48;99171.88;;;-7.54;68.46
69955;BME280;57279;55.912;37.490;2023-02-28T05:46:14;99176.38;;;-7.46;68.42
69955;BME280;57279;55.912;37.490;2023-02-28T05:48:41;99164.91;;;-7.45;67.91
69955;BME280;57279;55.912;37.490;2023-02-28T05:51:07;99155.09;;;-7.43;67.68
69955;BME280;57279;55.912;37.490;2023-02-28T05:53:34;99143.41;;;-7.31;67.89
69955;BME280;57279;55.912;37.490;2023-02-28T05:56:00;99137.31;;;-7.31;67.48
69955;BME280;57279;55.912;37.490;2023-02-28T05:58:26;99115.91;;;-7.27;67.57
69955;BME280;57279;55.912;37.490;2023-02-28T06:00:57;99106.50;;;-7.11;67.44
69955;BME280;57279;55.912;37.490;2023-02-28T06:03:23;99114.91;;;-7.25;67.14
69955;BME280;57279;55.912;37.490;2023-02-28T06:05:48;99129.22;;;-7.20;67.04
69955;BME280;57279;55.912;37.490;2023-02-28T06:08:15;99122.31;;;-7.03;66.83
69955;BME280;57279;55.912;37.490;2023-02-28T06:10:41;99120.59;;;-7.12;66.20
69955;BME280;57279;55.912;37.490;2023-02-28T06:13:07;99106.22;;;-7.08;66.76
69955;BME280;57279;55.912;37.490;2023-02-28T06:15:33;99101.47;;;-7.04;66.21
69955;BME280;57279;55.912;37.490;2023-02-28T06:17:59;99095.72;;;-7.08;66.61
69955;BME280;57279;55.912;37.490;2023-02-28T06:20:26;99086.50;;;-6.86;66.22
69955;BME280;57279;55.912;37.490;2023-02-28T06:22:58;99083.75;;;-6.76;65.96
69955;BME280;57279;55.912;37.490;2023-02-28T06:25:25;99093.97;;;-6.73;65.89
69955;BME280;57279;55.912;37.490;2023-02-28T06:27:52;99080.03;;;-6.74;65.56
69955;BME280;57279;55.912;37.490;2023-02-28T06:30:17;99080.56;;;-6.62;65.64
69955;BME280;57279;55.912;37.490;2023-02-28T06:32:43;99075.09;;;-6.69;65.56
69955;BME280;57279;55.912;37.490;2023-02-28T06:35:09;99049.69;;;-6.68;65.91
69955;BME280;57279;55.912;37.490;2023-02-28T06:37:35;99045.66;;;-6.54;65.78
69955;BME280;57279;55.912;37.490;2023-02-28T06:40:01;99025.16;;;-6.51;65.64
69955;BME280;57279;55.912;37.490;2023-02-28T06:42:28;99037.91;;;-6.56;65.86
69955;BME280;57279;55.912;37.490;2023-02-28T06:44:56;99026.84;;;-6.33;66.02
69955;BME280;57279;55.912;37.490;2023-02-28T06:47:21;99020.56;;;-6.40;65.89
69955;BME280;57279;55.912;37.490;2023-02-28T06:49:47;99014.16;;;-6.38;66.03
69955;BME280;57279;55.912;37.490;2023-02-28T06:52:14;99011.88;;;-6.33;66.23
69955;BME280;57279;55.912;37.490;2023-02-28T06:54:40;99003.66;;;-6.38;65.90
69955;BME280;57279;55.912;37.490;2023-02-28T06:57:06;99010.94;;;-6.23;65.94
69955;BME280;57279;55.912;37.490;2023-02-28T06:59:32;99000.78;;;-6.18;66.07
69955;BME280;57279;55.912;37.490;2023-02-28T07:01:58;98998.97;;;-6.10;66.13
69955;BME280;57279;55.912;37.490;2023-02-28T07:04:24;98990.94;;;-6.08;66.28
69955;BME280;57279;55.912;37.490;2023-02-28T07:06:49;98976.81;;;-5.99;66.60
69955;BME280;57279;55.912;37.490;2023-02-28T07:09:15;98968.72;;;-5.89;66.03
69955;BME280;57279;55.912;37.490;2023-02-28T07:11:41;98969.88;;;-5.75;66.53
69955;BME280;57279;55.912;37.490;2023-02-28T07:14:08;98958.38;;;-5.74;66.23
69955;BME280;57279;55.912;37.490;2023-02-28T07:16:35;98960.53;;;-5.78;66.84
69955;BME280;57279;55.912;37.490;2023-02-28T07:19:01;98967.41;;;-5.60;66.79
69955;BME280;57279;55.912;37.490;2023-02-28T07:21:26;98945.88;;;-5.47;66.35
69955;BME280;57279;55.912;37.490;2023-02-28T07:23:52;98944.72;;;-5.45;66.30
69955;BME280;57279;55.912;37.490;2023-02-28T07:26:19;98963.13;;;-5.37;66.81
69955;BME280;57279;55.912;37.490;2023-02-28T07:28:46;98950.63;;;-5.35;66.32
69955;BME280;57279;55.912;37.490;2023-02-28T07:31:13;98946.00;;;-5.24;65.96
69955;BME280;57279;55.912;37.490;2023-02-28T07:33:41;98947.16;;;-5.35;66.62
69955;BME280;57279;55.912;37.490;2023-02-28T07:36:14;98939.91;;;-5.33;66.94
69955;BME280;57279;55.912;37.490;2023-02-28T07:38:45;98939.91;;;-5.25;67.78
69955;BME280;57279;55.912;37.490;2023-02-28T07:41:14;98942.19;;;-5.22;67.07
69955;BME280;57279;55.912;37.490;2023-02-28T07:43:41;98938.56;;;-5.13;67.08
69955;BME280;57279;55.912;37.490;2023-02-28T07:46:09;98938.19;;;-5.01;67.21
69955;BME280;57279;55.912;37.490;2023-02-28T07:48:35;98945.94;;;-5.00;67.25
69955;BME280;57279;55.912;37.490;2023-02-28T07:51:01;98933.84;;;-4.78;67.34
69955;BME280;57279;55.912;37.490;2023-02-28T07:53:28;98926.69;;;-4.69;66.98
69955;BME280;57279;55.912;37.490;2023-02-28T07:55:58;98912.81;;;-4.55;66.58
69955;BME280;57279;55.912;37.490;2023-02-28T07:58:24;98920.41;;;-4.60;66.66
69955;BME280;57279;55.912;37.490;2023-02-28T08:00:51;98907.09;;;-4.66;66.80
69955;BME280;57279;55.912;37.490;2023-02-28T08:03:18;98909.72;;;-4.66;67.17
69955;BME280;57279;55.912;37.490;2023-02-28T08:05:44;98900.66;;;-4.64;66.97
69955;BME280;57279;55.912;37.490;2023-02-28T08:08:09;98905.56;;;-4.61;67.01
69955;BME280;57279;55.912;37.490;2023-02-28T08:10:35;98886.47;;;-4.55;67.85
69955;BME280;57279;55.912;37.490;2023-02-28T08:13:01;98877.44;;;-4.37;67.18
69955;BME280;57279;55.912;37.490;2023-02-28T08:15:27;98882.34;;;-4.34;67.07
69955;BME280;57279;55.912;37.490;2023-02-28T08:17:52;98885.22;;;-4.21;66.59
69955;BME280;57279;55.912;37.490;2023-02-28T08:20:18;98886.22;;;-4.22;66.59
69955;BME280;57279;55.912;37.490;2023-02-28T08:22:44;98921.94;;;-3.96;66.33
69955;BME280;57279;55.912;37.490;2023-02-28T08:25:10;98928.75;;;-3.79;65.94
69955;BME280;57279;55.912;37.490;2023-02-28T08:27:36;98927.13;;;-4.03;66.41
69955;BME280;57279;55.912;37.490;2023-02-28T08:30:03;98930.16;;;-3.91;66.82
69955;BME280;57279;55.912;37.490;2023-02-28T08:32:29;98924.94;;;-3.76;67.52
69955;BME280;57279;55.912;37.490;2023-02-28T08:34:55;98926.47;;;-3.82;67.15
69955;BME280;57279;55.912;37.490;2023-02-28T08:37:20;98930.81;;;-3.89;67.52
69955;BME280;57279;55.912;37.490;2023-02-28T08:39:46;98933.03;;;-3.78;67.25
69955;BME280;57279;55.912;37.490;2023-02-28T08:42:12;98917.69;;;-3.59;66.88
69955;BME280;57279;55.912;37.490;2023-02-28T08:44:37;98917.84;;;-3.76;66.88
69955;BME280;57279;55.912;37.490;2023-02-28T08:47:03;98908.75;;;-3.96;67.81
69955;BME280;57279;55.912;37.490;2023-02-28T08:49:29;98901.75;;;-3.81;67.48
69955;BME280;57279;55.912;37.490;2023-02-28T08:51:54;98896.25;;;-3.79;66.86
69955;BME280;57279;55.912;37.490;2023-02-28T08:54:23;98892.47;;;-3.77;67.37
69955;BME280;57279;55.912;37.490;2023-02-28T08:56:48;98892.66;;;-3.78;67.58
69955;BME280;57279;55.912;37.490;2023-02-28T08:59:14;98879.75;;;-3.73;67.13
69955;BME280;57279;55.912;37.490;2023-02-28T09:01:40;98874.34;;;-3.80;67.28
69955;BME280;57279;55.912;37.490;2023-02-28T09:04:07;98862.34;;;-3.82;67.58
69955;BME280;57279;55.912;37.490;2023-02-28T09:06:34;98864.25;;;-3.76;67.68
69955;BME280;57279;55.912;37.490;2023-02-28T09:09:00;98863.66;;;-3.63;67.39
69955;BME280;57279;55.912;37.490;2023-02-28T09:11:27;98865.72;;;-3.59;67.38
69955;BME280;57279;55.912;37.490;2023-02-28T09:13:53;98854.09;;;-3.49;67.37
69955;BME280;57279;55.912;37.490;2023-02-28T09:16:21;98853.25;;;-3.20;67.19
69955;BME280;57279;55.912;37.490;2023-02-28T09:18:47;98865.75;;;-3.44;66.59
69955;BME280;57279;55.912;37.490;2023-02-28T09:21:15;98871.63;;;-3.71;68.16
69955;BME280;57279;55.912;37.490;2023-02-28T09:23:42;98870.09;;;-3.81;68.21
69955;BME280;57279;55.912;37.490;2023-02-28T09:26:13;98876.09;;;-3.72;67.95
69955;BME280;57279;55.912;37.490;2023-02-28T09:28:39;98868.91;;;-3.78;68.28
69955;BME280;57279;55.912;37.490;2023-02-28T09:31:05;98863.03;;;-3.88;69.10
69955;BME280;57279;55.912;37.490;2023-02-28T09:33:31;98849.72;;;-3.72;68.41
69955;BME280;57279;55.912;37.490;2023-02-28T09:35:59;98820.78;;;-3.50;68.22
69955;BME280;57279;55.912;37.490;2023-02-28T09:38:25;98822.59;;;-3.51;68.10
69955;BME280;57279;55.912;37.490;2023-02-28T09:40:54;98826.91;;;-3.50;67.95
69955;BME280;57279;55.912;37.490;2023-02-28T09:43:23;98828.63;;;-3.57;68.67
69955;BME280;57279;55.912;37.490;2023-02-28T09:45:58;98815.78;;;-3.60;68.95
69955;BME280;57279;55.912;37.490;2023-02-28T09:48:33;98809.41;;;-3.51;68.97
69955;BME280;57279;55.912;37.490;2023-02-28T09:51:12;98806.59;;;-3.64;69.25
69955;BME280;57279;55.912;37.490;2023-02-28T09:53:41;98799.59;;;-3.57;69.20
69955;BME280;57279;55.912;37.490;2023-02-28T09:56:15;98795.47;;;-3.30;68.76
69955;BME280;57279;55.912;37.490;2023-02-28T09:59:04;98785.97;;;-3.09;68.03
69955;BME280;57279;55.912;37.490;2023-02-28T10:04:20;98775.09;;;-3.00;67.71
69955;BME280;57279;55.912;37.490;2023-02-28T10:06:52;98768.25;;;-3.30;68.44
69955;BME280;57279;55.912;37.490;2023-02-28T10:09:24;98759.28;;;-3.15;68.22
69955;BME280;57279;55.912;37.490;2023-02-28T10:11:53;98766.28;;;-3.07;68.38
69955;BME280;57279;55.912;37.490;2023-02-28T10:14:25;98767.16;;;-3.21;68.35
69955;BME280;57279;55.912;37.490;2023-02-28T10:16:55;98749.94;;;-3.32;68.82
69955;BME280;57279;55.912;37.490;2023-02-28T10:24:45;98769.34;;;-3.25;69.00
69955;BME280;57279;55.912;37.490;2023-02-28T10:29:47;98742.44;;;-3.13;69.87
69955;BME280;57279;55.912;37.490;2023-02-28T10:32:17;98755.09;;;-3.09;69.00
69955;BME280;57279;55.912;37.490;2023-02-28T10:34:43;98749.81;;;-3.09;69.04
69955;BME280;57279;55.912;37.490;2023-02-28T10:37:11;98745.16;;;-3.07;69.69
69955;BME280;57279;55.912;37.490;2023-02-28T10:39:43;98745.28;;;-3.15;69.42
69955;BME280;57279;55.912;37.490;2023-02-28T10:42:29;98736.00;;;-3.26;69.97
69955;BME280;57279;55.912;37.490;2023-02-28T11:00:58;98697.03;;;-3.24;71.74
69955;BME280;57279;55.912;37.490;2023-02-28T11:03:30;98702.56;;;-3.19;70.59
69955;BME280;57279;55.912;37.490;2023-02-28T11:05:57;98701.63;;;-3.32;71.34
69955;BME280;57279;55.912;37.490;2023-02-28T11:08:24;98714.38;;;-3.15;70.96
69955;BME280;57279;55.912;37.490;2023-02-28T11:10:58;98715.59;;;-2.96;70.94
69955;BME280;57279;55.912;37.490;2023-02-28T11:13:32;98715.28;;;-3.07;71.61
69955;BME280;57279;55.912;37.490;2023-02-28T11:16:03;98699.94;;;-2.97;71.86
69955;BME280;57279;55.912;37.490;2023-02-28T11:18:36;98711.16;;;-2.95;72.27
69955;BME280;57279;55.912;37.490;2023-02-28T11:21:05;98688.78;;;-2.71;71.98
69955;BME280;57279;55.912;37.490;2023-02-28T11:23:34;98691.00;;;-2.75;71.29
69955;BME280;57279;55.912;37.490;2023-02-28T11:26:03;98678.69;;;-2.89;72.22
69955;BME280;57279;55.912;37.490;2023-02-28T11:28:38;98688.81;;;-2.92;72.56
69955;BME280;57279;55.912;37.490;2023-02-28T11:31:16;98682.22;;;-3.03;73.95
69955;BME280;57279;55.912;37.490;2023-02-28T11:33:52;98674.16;;;-3.17;74.99
69955;BME280;57279;55.912;37.490;2023-02-28T11:36:28;98671.97;;;-3.13;76.18
69955;BME280;57279;55.912;37.490;2023-02-28T11:38:58;98672.31;;;-3.16;76.29
69955;BME280;57279;55.912;37.490;2023-02-28T11:42:05;98657.50;;;-3.17;76.33
69955;BME280;57279;55.912;37.490;2023-02-28T11:50:38;98656.72;;;-2.89;75.79
69955;BME280;57279;55.912;37.490;2023-02-28T11:53:19;98653.97;;;-2.81;75.89
69955;BME280;57279;55.912;37.490;2023-02-28T11:55:55;98651.13;;;-2.80;76.00
69955;BME280;57279;55.912;37.490;2023-02-28T12:01:04;98638.16;;;-2.46;75.19
69955;BME280;57279;55.912;37.490;2023-02-28T12:04:04;98641.59;;;-2.46;74.60
69955;BME280;57279;55.912;37.490;2023-02-28T12:07:03;98632.09;;;-2.40;74.93
69955;BME280;57279;55.912;37.490;2023-02-28T12:12:23;98637.81;;;-2.37;75.15
69955;BME280;57279;55.912;37.490;2023-02-28T12:17:55;98639.31;;;-2.56;75.00
69955;BME280;57279;55.912;37.490;2023-02-28T12:23:36;98637.88;;;-2.58;76.44
69955;BME280;57279;55.912;37.490;2023-02-28T12:29:02;98622.19;;;-2.60;76.25
69955;BME280;57279;55.912;37.490;2023-02-28T12:31:35;98626.09;;;-2.56;76.19
69955;BME280;57279;55.912;37.490;2023-02-28T12:34:10;98606.41;;;-2.53;75.81
69955;BME280;57279;55.912;37.490;2023-02-28T12:36:39;98606.09;;;-2.65;76.00
69955;BME280;57279;55.912;37.490;2023-02-28T12:39:10;98599.44;;;-2.61;76.59
69955;BME280;57279;55.912;37.490;2023-02-28T12:41:50;98592.34;;;-2.53;75.75
69955;BME280;57279;55.912;37.490;2023-02-28T12:47:05;98584.66;;;-2.48;75.83
69955;BME280;57279;55.912;37.490;2023-02-28T12:49:40;98586.75;;;-2.37;75.62
69955;BME280;57279;55.912;37.490;2023-02-28T12:52:10;98578.28;;;-2.26;75.09
69955;BME280;57279;55.912;37.490;2023-02-28T12:55:00;98569.16;;;-2.17;74.86
69955;BME280;57279;55.912;37.490;2023-02-28T13:00:19;98556.50;;;-2.28;75.14
69955;BME280;57279;55.912;37.490;2023-02-28T13:08:27;98550.75;;;-2.38;75.74
69955;BME280;57279;55.912;37.490;2023-02-28T13:10:58;98554.84;;;-2.29;75.35
69955;BME280;57279;55.912;37.490;2023-02-28T13:13:26;98552.50;;;-2.10;75.12
69955;BME280;57279;55.912;37.490;2023-02-28T13:18:32;98558.97;;;-2.20;74.87
69955;BME280;57279;55.912;37.490;2023-02-28T13:20:59;98551.03;;;-2.20;75.37
69955;BME280;57279;55.912;37.490;2023-02-28T13:29:27;98523.44;;;-1.97;74.84
69955;BME280;57279;55.912;37.490;2023-02-28T13:34:38;98514.47;;;-2.09;75.22
69955;BME280;57279;55.912;37.490;2023-02-28T14:06:27;98530.25;;;-2.29;77.20
69955;BME280;57279;55.912;37.490;2023-02-28T14:09:03;98516.66;;;-2.20;76.79
69955;BME280;57279;55.912;37.490;2023-02-28T14:11:38;98504.28;;;-2.12;76.46
69955;BME280;57279;55.912;37.490;2023-02-28T14:14:06;98512.84;;;-2.04;76.11
69955;BME280;57279;55.912;37.490;2023-02-28T14:19:25;98502.91;;;-1.95;75.91
69955;BME280;57279;55.912;37.490;2023-02-28T14:24:50;98490.28;;;-2.00;76.32
69955;BME280;57279;55.912;37.490;2023-02-28T14:27:54;98488.44;;;-1.92;76.53
69955;BME280;57279;55.912;37.490;2023-02-28T14:33:31;98484.00;;;-1.85;76.46
69955;BME280;57279;55.912;37.490;2023-02-28T14:36:20;98472.22;;;-1.83;76.48
69955;BME280;57279;55.912;37.490;2023-02-28T14:38:52;98469.16;;;-1.86;76.53
69955;BME280;57279;55.912;37.490;2023-02-28T14:41:36;98474.84;;;-1.76;75.91
69955;BME280;57279;55.912;37.490;2023-02-28T14:46:40;98473.41;;;-1.92;76.99
69955;BME280;57279;55.912;37.490;2023-02-28T14:49:07;98473.59;;;-1.93;76.94
69955;BME280;57279;55.912;37.490;2023-02-28T14:51:38;98466.91;;;-1.83;77.03
69955;BME280;57279;55.912;37.490;2023-02-28T14:54:04;98471.59;;;-1.78;76.42
69955;BME280;57279;55.912;37.490;2023-02-28T14:56:33;98473.38;;;-1.99;77.40
69955;BME280;57279;55.912;37.490;2023-02-28T14:58:59;98479.13;;;-1.88;77.52
69955;BME280;57279;55.912;37.490;2023-02-28T15:01:25;98467.47;;;-2.01;77.84
69955;BME280;57279;55.912;37.490;2023-02-28T15:03:59;98469.34;;;-1.88;77.61
69955;BME280;57279;55.912;37.490;2023-02-28T15:06:26;98482.34;;;-1.93;77.53
69955;BME280;57279;55.912;37.490;2023-02-28T15:09:17;98465.47;;;-1.92;77.82
69955;BME280;57279;55.912;37.490;2023-02-28T15:11:48;98466.91;;;-1.96;78.05
69955;BME280;57279;55.912;37.490;2023-02-28T15:14:18;98470.34;;;-1.89;78.04
69955;BME280;57279;55.912;37.490;2023-02-28T15:16:49;98454.91;;;-1.65;77.54
69955;BME280;57279;55.912;37.490;2023-02-28T15:21:47;98451.66;;;-1.67;77.31
69955;BME280;57279;55.912;37.490;2023-02-28T15:24:20;98450.00;;;-1.82;77.23
69955;BME280;57279;55.912;37.490;2023-02-28T15:26:55;98444.28;;;-1.85;77.89
69955;BME280;57279;55.912;37.490;2023-02-28T15:29:25;98449.81;;;-1.73;77.82